createdAt,value
2022-10-05T00:01:23.444Z,8.73
2022-10-05T00:03:50.703Z,8.40
2022-10-05T00:06:17.946Z,7.13
2022-10-05T00:08:45.080Z,7.20
2022-10-05T00:11:14.543Z,6.85
2022-10-05T00:13:42.353Z,6.88
2022-10-05T00:16:15.842Z,7.03
2022-10-05T00:18:44.087Z,6.70
2022-10-05T00:21:24.282Z,6.55
2022-10-05T00:23:51.881Z,6.15
2022-10-05T00:26:23.779Z,6.57
2022-10-05T00:28:51.282Z,6.50
2022-10-05T00:31:21.531Z,6.28
2022-10-05T00:33:49.285Z,5.97
2022-10-05T00:36:16.527Z,6.55
2022-10-05T00:38:44.091Z,6.85
2022-10-05T00:41:14.063Z,6.78
2022-10-05T00:43:59.478Z,5.22
2022-10-05T00:46:27.702Z,5.72
2022-10-05T00:49:13.633Z,6.07
2022-10-05T00:51:42.114Z,5.85
2022-10-05T00:54:27.639Z,6.63
2022-10-05T00:57:02.340Z,6.57
2022-10-05T00:59:36.846Z,5.90
2022-10-05T01:02:10.029Z,6.18
2022-10-05T01:05:00.517Z,5.93
2022-10-05T01:07:36.780Z,6.28
2022-10-05T01:10:10.933Z,5.97
2022-10-05T01:12:49.699Z,6.55
2022-10-05T01:15:20.427Z,6.80
2022-10-05T01:17:56.023Z,7.15
2022-10-05T01:20:23.090Z,5.93
2022-10-05T01:23:08.606Z,6.53
2022-10-05T01:25:43.404Z,6.70
2022-10-05T01:28:22.734Z,6.00
2022-10-05T01:31:25.306Z,6.13
2022-10-05T01:34:01.358Z,6.40
2022-10-05T01:36:40.377Z,9.27
2022-10-05T01:39:13.251Z,7.05
2022-10-05T01:44:18.372Z,6.75
2022-10-05T01:46:51.084Z,7.53
2022-10-05T01:49:21.155Z,6.80
2022-10-05T01:51:57.221Z,7.00
2022-10-05T01:54:46.215Z,6.82
2022-10-05T01:57:31.860Z,5.85
2022-10-05T02:00:07.176Z,6.53
2022-10-05T02:02:43.211Z,6.38
2022-10-05T02:05:10.435Z,6.32
2022-10-05T02:07:40.922Z,6.45
2022-10-05T02:10:20.179Z,6.90
2022-10-05T02:12:47.599Z,7.13
2022-10-05T02:15:16.565Z,6.95
2022-10-05T02:17:49.462Z,6.55
2022-10-05T02:20:19.899Z,6.40
2022-10-05T02:22:52.146Z,6.75
2022-10-05T02:25:22.145Z,7.07
2022-10-05T02:28:08.172Z,6.72
2022-10-05T02:30:39.176Z,7.38
2022-10-05T02:33:09.176Z,7.38
2022-10-05T02:35:36.266Z,7.43
2022-10-05T02:38:12.411Z,7.15
2022-10-05T02:40:45.307Z,6.72
2022-10-05T02:43:20.369Z,6.47
2022-10-05T02:45:51.002Z,6.65
2022-10-05T02:48:37.099Z,7.30
2022-10-05T02:51:11.679Z,6.60
2022-10-05T02:53:49.751Z,7.00
2022-10-05T02:56:24.759Z,7.18
2022-10-05T02:59:01.008Z,6.57
2022-10-05T03:01:32.740Z,7.72
2022-10-05T03:04:19.118Z,6.50
2022-10-05T03:06:55.031Z,6.97
2022-10-05T03:09:23.646Z,7.30
2022-10-05T03:12:09.524Z,6.95
2022-10-05T03:14:55.351Z,6.75
2022-10-05T03:17:25.832Z,6.20
2022-10-05T03:20:11.074Z,6.18
2022-10-05T03:23:04.611Z,6.45
2022-10-05T03:25:43.823Z,6.60
2022-10-05T03:28:13.823Z,6.80
2022-10-05T03:31:01.606Z,6.32
2022-10-05T03:33:29.053Z,5.85
2022-10-05T03:36:15.982Z,6.75
2022-10-05T03:38:46.146Z,6.25
2022-10-05T03:41:22.276Z,5.95
2022-10-05T03:44:04.559Z,5.80
2022-10-05T03:46:37.594Z,5.85
2022-10-05T03:49:22.943Z,6.35
2022-10-05T03:51:52.648Z,6.20
2022-10-05T03:54:30.589Z,5.78
2022-10-05T03:57:03.720Z,5.72
2022-10-05T03:59:37.346Z,5.65
2022-10-05T04:02:11.833Z,6.10
2022-10-05T04:04:46.140Z,6.65
2022-10-05T04:07:19.150Z,6.32
2022-10-05T04:09:47.568Z,5.82
2022-10-05T04:12:26.363Z,6.55
2022-10-05T04:15:16.434Z,5.35
2022-10-05T04:17:47.563Z,5.97
2022-10-05T04:20:20.926Z,5.55
2022-10-05T04:22:57.051Z,5.72
2022-10-05T04:25:33.016Z,5.95
2022-10-05T04:28:13.795Z,5.13
2022-10-05T04:30:43.020Z,5.70
2022-10-05T04:33:12.586Z,5.90
2022-10-05T04:35:45.797Z,7.10
2022-10-05T04:38:31.629Z,6.50
2022-10-05T04:40:59.013Z,7.05
2022-10-05T04:43:26.109Z,6.45
2022-10-05T04:45:56.408Z,6.82
2022-10-05T04:48:24.138Z,6.63
2022-10-05T04:51:06.615Z,6.82
2022-10-05T04:53:35.957Z,7.90
2022-10-05T04:56:16.252Z,11.27
2022-10-05T04:58:48.354Z,11.73
2022-10-05T05:01:15.890Z,15.45
2022-10-05T05:03:49.074Z,12.70
2022-10-05T05:06:32.092Z,12.60
2022-10-05T05:11:30.022Z,13.00
2022-10-05T05:14:04.433Z,12.18
2022-10-05T05:16:31.564Z,13.23
2022-10-05T05:19:11.052Z,14.18
2022-10-05T05:21:44.075Z,13.63
2022-10-05T05:24:16.975Z,13.82
2022-10-05T05:26:44.183Z,13.05
2022-10-05T05:29:21.231Z,13.13
2022-10-05T05:31:56.270Z,11.82
2022-10-05T05:34:34.392Z,11.13
2022-10-05T05:37:07.498Z,11.73
2022-10-05T05:39:42.977Z,10.93
2022-10-05T05:42:32.166Z,10.25
2022-10-05T05:45:06.412Z,9.05
2022-10-05T05:47:35.306Z,7.72
2022-10-05T05:50:21.131Z,7.53
2022-10-05T05:52:52.326Z,8.00
2022-10-05T05:55:19.385Z,7.70
2022-10-05T05:57:57.988Z,8.60
2022-10-05T06:00:27.419Z,7.90
2022-10-05T06:02:58.080Z,7.57
2022-10-05T06:05:39.272Z,6.50
2022-10-05T06:08:16.754Z,6.30
2022-10-05T06:11:00.011Z,6.25
2022-10-05T06:13:46.493Z,10.93
2022-10-05T06:16:19.211Z,6.25
2022-10-05T06:21:32.349Z,5.97
2022-10-05T06:23:59.441Z,6.47
2022-10-05T06:26:50.494Z,5.80
2022-10-05T06:29:19.823Z,5.45
2022-10-05T06:32:05.614Z,6.85
2022-10-05T06:34:44.917Z,6.50
2022-10-05T06:37:16.990Z,7.03
2022-10-05T06:40:01.269Z,4.82
2022-10-05T06:42:31.667Z,5.65
2022-10-05T06:45:01.385Z,4.80
2022-10-05T06:47:47.427Z,4.30
2022-10-05T06:50:19.917Z,4.78
2022-10-05T06:53:05.946Z,5.30
2022-10-05T06:55:53.324Z,6.10
2022-10-05T06:58:26.338Z,6.00
2022-10-05T07:00:54.827Z,4.00
2022-10-05T07:03:22.074Z,4.53
2022-10-05T07:05:52.363Z,4.60
2022-10-05T07:08:22.982Z,5.10
2022-10-05T07:10:50.159Z,6.13
2022-10-05T07:13:23.305Z,6.22
2022-10-05T07:15:50.378Z,5.47
2022-10-05T07:18:17.538Z,4.75
2022-10-05T07:21:09.712Z,5.57
2022-10-05T07:23:53.318Z,4.93
2022-10-05T07:26:26.392Z,5.10
2022-10-05T07:29:05.738Z,5.07
2022-10-05T07:31:38.775Z,4.63
2022-10-05T07:34:10.465Z,4.70
2022-10-05T07:37:02.340Z,4.25
2022-10-05T07:39:59.228Z,4.50
2022-10-05T07:42:31.630Z,3.70
2022-10-05T07:45:08.942Z,3.80
2022-10-05T07:47:42.189Z,3.95
2022-10-05T07:50:14.472Z,4.50
2022-10-05T07:52:45.395Z,4.15
2022-10-05T07:55:45.676Z,4.00
2022-10-05T07:58:31.320Z,4.70
2022-10-05T08:01:01.424Z,3.88
2022-10-05T08:03:31.370Z,4.55
2022-10-05T08:06:00.261Z,4.20
2022-10-05T08:08:36.355Z,4.25
2022-10-05T08:11:11.869Z,4.25
2022-10-05T08:13:43.054Z,4.38
2022-10-05T08:16:14.559Z,4.10
2022-10-05T08:18:45.214Z,4.50
2022-10-05T08:21:16.088Z,4.35
2022-10-05T08:23:54.443Z,4.30
2022-10-05T08:26:37.182Z,3.70
2022-10-05T08:29:17.186Z,2.80
2022-10-05T08:31:47.092Z,2.85
2022-10-05T08:34:20.149Z,2.65
2022-10-05T08:39:19.875Z,2.40
2022-10-05T08:41:53.683Z,2.47
2022-10-05T08:44:39.891Z,2.67
2022-10-05T08:47:30.816Z,2.20
2022-10-05T08:50:02.600Z,2.30
2022-10-05T08:52:48.417Z,2.50
2022-10-05T08:55:21.883Z,2.42
2022-10-05T08:57:59.819Z,2.20
2022-10-05T09:00:35.988Z,2.30
2022-10-05T09:03:22.238Z,2.00
2022-10-05T09:06:14.456Z,2.20
2022-10-05T09:09:03.159Z,1.92
2022-10-05T09:11:31.911Z,2.00
2022-10-05T09:14:01.871Z,1.88
2022-10-05T09:16:36.703Z,1.80
2022-10-05T09:19:34.922Z,2.30
2022-10-05T09:22:01.983Z,2.28
2022-10-05T09:24:36.386Z,1.90
2022-10-05T09:27:03.508Z,2.50
2022-10-05T09:29:49.405Z,1.90
2022-10-05T09:32:16.758Z,2.00
2022-10-05T09:34:54.062Z,1.75
2022-10-05T09:37:30.607Z,2.45
2022-10-05T09:40:16.523Z,1.90
2022-10-05T09:42:50.540Z,1.70
2022-10-05T09:45:31.478Z,1.95
2022-10-05T09:48:12.686Z,1.85
2022-10-05T09:50:58.486Z,1.83
2022-10-05T09:53:44.676Z,1.40
2022-10-05T09:56:15.326Z,1.63
2022-10-05T09:58:42.856Z,1.63
2022-10-05T10:01:29.197Z,1.70
2022-10-05T10:04:10.527Z,1.80
2022-10-05T10:06:45.563Z,1.73
2022-10-05T10:09:18.573Z,1.55
2022-10-05T10:12:04.327Z,1.60
2022-10-05T10:14:31.383Z,1.40
2022-10-05T10:17:03.319Z,2.22
2022-10-05T10:19:48.482Z,1.67
2022-10-05T10:22:18.524Z,1.90
2022-10-05T10:24:57.179Z,1.80
2022-10-05T10:27:42.704Z,1.90
2022-10-05T10:30:34.421Z,1.50
2022-10-05T10:33:19.736Z,1.45
2022-10-05T10:35:55.674Z,1.95
2022-10-05T10:38:31.201Z,1.33
2022-10-05T10:41:07.264Z,1.70
2022-10-05T10:43:46.327Z,1.48
2022-10-05T10:46:13.404Z,1.77
2022-10-05T10:48:44.732Z,1.73
2022-10-05T10:51:30.758Z,1.70
2022-10-05T10:54:04.599Z,1.45
2022-10-05T10:56:47.754Z,1.50
2022-10-05T10:59:33.902Z,1.85
2022-10-05T11:02:19.537Z,1.45
2022-10-05T11:04:53.770Z,1.65
2022-10-05T11:07:35.873Z,1.45
2022-10-05T11:10:21.316Z,1.30
2022-10-05T11:13:00.590Z,1.58
2022-10-05T11:15:30.503Z,1.40
2022-10-05T11:18:07.318Z,1.25
2022-10-05T11:20:47.066Z,1.30
2022-10-05T11:23:37.949Z,1.52
2022-10-05T11:26:27.703Z,1.50
2022-10-05T11:28:54.834Z,1.65
2022-10-05T11:31:36.422Z,1.20
2022-10-05T11:34:04.676Z,1.90
2022-10-05T11:36:31.803Z,1.70
2022-10-05T11:39:08.694Z,1.30
2022-10-05T11:41:41.292Z,1.27
2022-10-05T11:44:21.975Z,1.60
2022-10-05T11:46:54.803Z,1.50
2022-10-05T11:49:21.945Z,1.27
2022-10-05T11:51:49.166Z,1.55
2022-10-05T11:54:23.391Z,1.60
2022-10-05T11:56:53.762Z,1.30
2022-10-05T11:59:28.603Z,1.40
2022-10-05T12:02:14.611Z,1.48
2022-10-05T12:04:55.393Z,1.30
2022-10-05T12:07:22.508Z,1.38
2022-10-05T12:10:11.112Z,1.75
2022-10-05T12:12:45.990Z,1.40
2022-10-05T12:15:32.664Z,1.60
2022-10-05T12:18:13.578Z,1.45
2022-10-05T12:20:56.207Z,1.65
2022-10-05T12:23:26.229Z,1.42
2022-10-05T12:26:02.625Z,1.42
2022-10-05T12:28:35.847Z,1.50
2022-10-05T12:31:09.366Z,1.23
2022-10-05T12:33:47.678Z,1.45
2022-10-05T12:36:17.494Z,1.65
2022-10-05T12:38:59.273Z,1.38
2022-10-05T12:41:32.211Z,1.65
2022-10-05T12:44:09.687Z,1.55
2022-10-05T12:46:46.826Z,1.50
2022-10-05T12:49:25.409Z,1.50
2022-10-05T12:52:00.689Z,1.42
2022-10-05T12:54:42.439Z,1.40
2022-10-05T12:57:21.669Z,1.38
2022-10-05T12:59:56.179Z,1.88
2022-10-05T13:02:32.899Z,1.35
2022-10-05T13:05:00.012Z,1.20
2022-10-05T13:07:42.552Z,1.55
2022-10-05T13:10:16.659Z,1.50
2022-10-05T13:12:57.811Z,1.40
2022-10-05T13:15:30.468Z,1.33
2022-10-05T13:20:36.435Z,1.45
2022-10-05T13:23:15.635Z,1.70
2022-10-05T13:25:50.258Z,1.15
2022-10-05T13:28:19.578Z,1.45
2022-10-05T13:30:52.572Z,1.58
2022-10-05T13:33:28.448Z,1.70
2022-10-05T13:36:02.612Z,1.65
2022-10-05T13:38:43.711Z,1.30
2022-10-05T13:41:17.891Z,1.33
2022-10-05T13:44:03.545Z,1.20
2022-10-05T13:46:51.557Z,1.33
2022-10-05T13:49:26.313Z,1.42
2022-10-05T13:52:03.775Z,1.20
2022-10-05T13:54:39.607Z,1.33
2022-10-05T13:57:12.571Z,1.20
2022-10-05T14:00:05.910Z,1.30
2022-10-05T14:02:41.135Z,1.08
2022-10-05T14:05:16.682Z,1.40
2022-10-05T14:07:51.800Z,1.30
2022-10-05T14:10:34.159Z,2.08
2022-10-05T14:13:03.370Z,1.48
2022-10-05T14:15:42.344Z,1.20
2022-10-05T14:18:25.497Z,1.45
2022-10-05T14:21:18.714Z,1.55
2022-10-05T14:23:45.802Z,1.20
2022-10-05T14:26:21.392Z,1.60
2022-10-05T14:28:59.982Z,1.50
2022-10-05T14:31:32.260Z,1.70
2022-10-05T14:34:19.325Z,1.50
2022-10-05T14:36:46.553Z,1.40
2022-10-05T14:39:15.207Z,1.50
2022-10-05T14:41:49.659Z,1.38
2022-10-05T14:44:27.242Z,1.52
2022-10-05T14:46:56.618Z,1.20
2022-10-05T14:49:30.673Z,1.40
2022-10-05T14:51:58.724Z,1.40
2022-10-05T14:54:25.781Z,1.38
2022-10-05T14:57:11.827Z,1.20
2022-10-05T14:59:46.720Z,0.77
2022-10-05T15:02:32.316Z,0.70
2022-10-05T15:05:05.190Z,1.35
2022-10-05T15:07:37.463Z,0.65
2022-10-05T15:10:04.530Z,0.73
2022-10-05T15:12:46.763Z,0.75
2022-10-05T15:15:25.608Z,0.60
2022-10-05T15:17:56.269Z,0.77
2022-10-05T15:20:31.474Z,0.88
2022-10-05T15:23:24.768Z,0.50
2022-10-05T15:25:56.733Z,1.20
2022-10-05T15:28:36.301Z,1.00
2022-10-05T15:31:06.682Z,1.60
2022-10-05T15:33:54.496Z,2.30
2022-10-05T15:36:44.111Z,2.22
2022-10-05T15:39:13.956Z,1.13
2022-10-05T15:41:45.304Z,1.20
2022-10-05T15:44:30.775Z,1.00
2022-10-05T15:47:05.639Z,1.20
2022-10-05T15:49:33.754Z,1.20
2022-10-05T15:52:13.653Z,1.60
2022-10-05T15:54:56.313Z,1.33
2022-10-05T15:57:35.437Z,0.85
2022-10-05T16:00:12.126Z,1.00
2022-10-05T16:02:51.756Z,0.80
2022-10-05T16:05:20.735Z,0.90
2022-10-05T16:08:10.326Z,0.90
2022-10-05T16:10:39.659Z,0.98
2022-10-05T16:13:06.718Z,0.80
2022-10-05T16:16:12.571Z,0.93
2022-10-05T16:18:39.622Z,0.85
2022-10-05T16:21:18.695Z,1.00
2022-10-05T16:24:05.542Z,0.80
2022-10-05T16:26:32.773Z,0.98
2022-10-05T16:29:11.711Z,0.80
2022-10-05T16:31:44.750Z,1.63
2022-10-05T16:34:23.201Z,1.42
2022-10-05T16:36:50.630Z,1.17
2022-10-05T16:39:44.974Z,1.30
2022-10-05T16:42:15.333Z,2.53
2022-10-05T16:45:06.753Z,1.85
2022-10-05T16:48:06.122Z,1.33
2022-10-05T16:51:05.309Z,0.93
2022-10-05T16:53:38.187Z,0.90
2022-10-05T16:56:08.493Z,1.13
2022-10-05T16:58:44.746Z,1.00
2022-10-05T17:01:31.003Z,1.00
2022-10-05T17:03:58.535Z,2.33
2022-10-05T17:06:46.815Z,10.40
2022-10-05T17:09:17.156Z,3.75
2022-10-05T17:11:55.245Z,2.72
2022-10-05T17:14:41.043Z,1.95
2022-10-05T17:17:33.655Z,1.40
2022-10-05T17:20:16.227Z,1.33
2022-10-05T17:22:51.334Z,1.08
2022-10-05T17:25:35.579Z,3.13
2022-10-05T17:28:22.357Z,3.83
2022-10-05T17:30:58.825Z,2.50
2022-10-05T17:33:28.921Z,2.58
2022-10-05T17:36:04.558Z,2.00
2022-10-05T17:38:33.758Z,2.13
2022-10-05T17:41:00.990Z,1.35
2022-10-05T17:43:32.620Z,1.33
2022-10-05T17:46:01.886Z,1.00
2022-10-05T17:48:54.121Z,1.50
2022-10-05T17:51:48.848Z,1.20
2022-10-05T17:54:43.479Z,0.90
2022-10-05T17:57:10.783Z,1.30
2022-10-05T17:59:37.834Z,1.20
2022-10-05T18:02:20.963Z,1.38
2022-10-05T18:05:01.320Z,1.30
2022-10-05T18:07:28.540Z,1.38
2022-10-05T18:10:00.429Z,1.30
2022-10-05T18:12:41.695Z,1.20
2022-10-05T18:15:08.762Z,0.98
2022-10-05T18:17:41.718Z,1.25
2022-10-05T18:20:27.399Z,1.02
2022-10-05T18:23:14.866Z,4.53
2022-10-05T18:25:46.536Z,4.47
2022-10-05T18:28:26.204Z,4.82
2022-10-05T18:31:06.794Z,1.15
2022-10-05T18:33:52.900Z,1.40
2022-10-05T18:36:40.616Z,1.10
2022-10-05T18:39:15.626Z,1.10
2022-10-05T18:42:01.644Z,1.10
2022-10-05T18:44:31.881Z,1.20
2022-10-05T18:46:58.961Z,1.17
2022-10-05T18:49:45.307Z,1.10
2022-10-05T18:52:18.271Z,1.38
2022-10-05T18:54:46.333Z,1.30
2022-10-05T18:57:32.201Z,1.33
2022-10-05T19:00:07.483Z,1.20
2022-10-05T19:02:34.696Z,1.23
2022-10-05T19:05:46.461Z,1.00
2022-10-05T19:08:15.725Z,0.93
2022-10-05T19:10:47.897Z,1.30
2022-10-05T19:13:34.112Z,2.10
2022-10-05T19:16:22.476Z,1.60
2022-10-05T19:19:08.027Z,1.13
2022-10-05T19:21:53.301Z,1.30
2022-10-05T19:24:41.640Z,1.50
2022-10-05T19:27:11.462Z,1.17
2022-10-05T19:30:04.219Z,1.70
2022-10-05T19:32:31.636Z,1.50
2022-10-05T19:35:17.304Z,1.30
2022-10-05T19:38:11.814Z,1.20
2022-10-05T19:41:03.988Z,1.38
2022-10-05T19:43:47.174Z,1.80
2022-10-05T19:46:33.329Z,1.50
2022-10-05T19:49:00.585Z,1.27
2022-10-05T19:51:30.394Z,1.27
2022-10-05T19:54:14.800Z,1.30
2022-10-05T19:56:49.515Z,1.20
2022-10-05T19:59:20.640Z,1.13
2022-10-05T20:01:52.304Z,1.25
2022-10-05T20:04:49.508Z,1.10
2022-10-05T20:07:18.128Z,1.50
2022-10-05T20:09:58.119Z,1.45
2022-10-05T20:12:43.762Z,1.42
2022-10-05T20:15:36.567Z,1.55
2022-10-05T20:18:41.354Z,1.40
2022-10-05T20:21:08.423Z,1.60
2022-10-05T20:23:35.952Z,1.52
2022-10-05T20:26:21.742Z,1.80
2022-10-05T20:28:49.106Z,1.95
2022-10-05T20:31:20.151Z,1.70
2022-10-05T20:33:48.384Z,1.85
2022-10-05T20:36:15.516Z,1.73
2022-10-05T20:38:43.458Z,1.60
2022-10-05T20:41:10.580Z,1.80
2022-10-05T20:43:39.651Z,1.88
2022-10-05T20:46:07.793Z,1.77
2022-10-05T20:48:36.484Z,2.65
2022-10-05T20:51:04.011Z,3.00
2022-10-05T20:53:31.179Z,3.50
2022-10-05T20:56:02.487Z,2.50
2022-10-05T20:58:30.046Z,3.25
2022-10-05T21:01:16.488Z,3.13
2022-10-05T21:03:43.691Z,2.85
2022-10-05T21:06:11.262Z,2.60
2022-10-05T21:08:38.660Z,2.72
2022-10-05T21:11:08.885Z,2.90
2022-10-05T21:13:44.549Z,2.42
2022-10-05T21:16:15.497Z,2.00
2022-10-05T21:18:44.326Z,1.90
2022-10-05T21:21:11.673Z,1.92
2022-10-05T21:23:38.764Z,1.73
2022-10-05T21:26:07.287Z,2.03
2022-10-05T21:28:34.621Z,1.65
2022-10-05T21:31:01.707Z,2.08
2022-10-05T21:33:29.049Z,1.95
2022-10-05T21:35:56.397Z,1.65
2022-10-05T21:38:23.569Z,1.75
2022-10-05T21:40:51.225Z,1.63
2022-10-05T21:43:18.453Z,2.00
2022-10-05T21:45:46.430Z,1.90
2022-10-05T21:48:14.218Z,2.17
2022-10-05T21:50:41.739Z,1.90
2022-10-05T21:53:10.576Z,2.10
2022-10-05T21:55:40.143Z,2.20
2022-10-05T21:58:07.358Z,1.75
2022-10-05T22:00:34.424Z,1.90
2022-10-05T22:03:01.586Z,2.00
2022-10-05T22:05:28.769Z,2.00
2022-10-05T22:07:55.938Z,2.00
2022-10-05T22:10:23.019Z,2.10
2022-10-05T22:12:50.176Z,2.10
2022-10-05T22:15:17.639Z,2.20
2022-10-05T22:17:47.988Z,2.17
2022-10-05T22:20:15.493Z,1.83
2022-10-05T22:22:42.574Z,1.98
2022-10-05T22:25:09.714Z,2.20
2022-10-05T22:27:37.117Z,2.22
2022-10-05T22:30:05.706Z,2.05
2022-10-05T22:32:32.802Z,2.20
2022-10-05T22:35:00.480Z,2.15
2022-10-05T22:37:27.594Z,2.28
2022-10-05T22:39:55.247Z,2.30
2022-10-05T22:42:22.470Z,2.47
2022-10-05T22:44:49.574Z,2.15
2022-10-05T22:47:17.128Z,2.10
2022-10-05T22:49:44.214Z,2.30
2022-10-05T22:52:11.343Z,2.20
2022-10-05T22:54:38.458Z,2.42
2022-10-05T22:57:05.563Z,2.30
2022-10-05T22:59:32.740Z,2.55
2022-10-05T23:01:59.948Z,2.42
2022-10-05T23:04:27.165Z,2.47
2022-10-05T23:06:54.733Z,2.20
2022-10-05T23:09:22.367Z,2.28
2022-10-05T23:11:52.088Z,2.00
2022-10-05T23:14:19.643Z,2.25
2022-10-05T23:16:47.474Z,2.03
2022-10-05T23:19:14.713Z,2.28
2022-10-05T23:21:42.078Z,2.05
2022-10-05T23:24:09.402Z,2.30
2022-10-05T23:26:36.894Z,2.22
2022-10-05T23:29:04.838Z,2.50
2022-10-05T23:31:33.451Z,2.35
2022-10-05T23:34:00.591Z,2.28
2022-10-05T23:36:32.964Z,2.38
2022-10-05T23:39:00.351Z,2.28
2022-10-05T23:41:28.538Z,2.08
2022-10-05T23:43:56.321Z,2.22
2022-10-05T23:46:23.477Z,2.33
2022-10-05T23:48:50.958Z,2.20
2022-10-05T23:51:18.679Z,2.17
2022-10-05T23:53:46.016Z,2.47
2022-10-05T23:56:13.272Z,2.33
2022-10-05T23:58:40.915Z,2.47
